Time;durP1;ratioP1;P1;durP2;ratioP2;P2;SDS_P1;SDS_P2;PMS_P1;PMS_P2;Temp;Humidity;BMP_temperature;BMP_pressure;BME280_temperature;BME280_humidity;BME280_pressure;Samples;Min_cycle;Max_cycle;Signal;HPM_P1;HPM_P2
2023/04/04 00:00:20;;;;;;;2.50;1.60;;;;;19.40;101802.00;;;;2095844;28;20239;-69
2023/04/04 00:01:21;;;;;;;2.57;1.83;;;;;19.40;101793.00;;;;2095374;28;20592;-69
2023/04/04 00:02:21;;;;;;;2.40;2.10;;;;;19.40;101791.00;;;;2095579;28;20216;-69
2023/04/04 00:03:21;;;;;;;3.60;1.90;;;;;19.40;101793.00;;;;2096112;28;20242;-69
2023/04/04 00:04:22;;;;;;;1.83;1.60;;;;;19.40;101790.00;;;;2094013;28;20223;-69
2023/04/04 00:05:22;;;;;;;2.23;1.87;;;;;19.40;101791.00;;;;2096019;28;20695;-69
2023/04/04 00:06:23;;;;;;;1.77;1.37;;;;;19.40;101796.00;;;;2095284;28;20228;-69
2023/04/04 00:07:23;;;;;;;2.10;1.70;;;;;19.40;101797.00;;;;2096099;28;20200;-69
2023/04/04 00:08:23;;;;;;;2.37;1.70;;;;;19.40;101792.00;;;;2095974;28;20205;-69
2023/04/04 00:09:24;;;;;;;2.67;1.83;;;;;19.30;101789.00;;;;2100662;28;20256;-69
2023/04/04 00:10:24;;;;;;;3.00;1.73;;;;;19.30;101795.00;;;;2095994;28;20214;-69
2023/04/04 00:11:25;;;;;;;2.17;1.40;;;;;19.30;101777.00;;;;2095244;28;20208;-69
2023/04/04 00:12:26;;;;;;;2.35;1.85;;;;;19.40;101791.00;;;;2086847;28;20658;-69
2023/04/04 00:13:26;;;;;;;3.00;2.00;;;;;19.30;101791.00;;;;2078139;28;20224;-69
2023/04/04 00:14:26;;;;;;;2.00;1.73;;;;;19.30;101789.00;;;;2095382;28;20737;-70
2023/04/04 00:15:27;;;;;;;2.40;1.83;;;;;19.20;101800.00;;;;2094838;28;20699;-69
2023/04/04 00:16:27;;;;;;;2.03;1.70;;;;;19.30;101786.00;;;;2093719;28;20228;-69
2023/04/04 00:17:27;;;;;;;1.83;1.60;;;;;19.30;101789.00;;;;2095235;28;20219;-69
2023/04/04 00:18:28;;;;;;;2.40;1.60;;;;;19.30;101793.00;;;;2095193;28;20305;-68
2023/04/04 00:19:28;;;;;;;1.97;1.53;;;;;19.30;101786.00;;;;2096037;28;20219;-69
2023/04/04 00:20:29;;;;;;;3.03;1.90;;;;;19.30;101803.00;;;;2094608;28;20259;-69
2023/04/04 00:21:30;;;;;;;2.35;1.80;;;;;19.30;101807.00;;;;2095836;28;20333;-69
2023/04/04 00:22:30;;;;;;;2.70;2.00;;;;;19.30;101805.00;;;;2095769;28;20277;-69
2023/04/04 00:23:30;;;;;;;2.67;1.80;;;;;19.30;101802.00;;;;2095326;28;20249;-69
2023/04/04 00:24:31;;;;;;;4.10;1.73;;;;;19.30;101793.00;;;;2096053;28;20216;-69
2023/04/04 00:25:31;;;;;;;1.97;1.50;;;;;19.30;101803.00;;;;2094604;28;20691;-69
2023/04/04 00:26:31;;;;;;;2.10;1.50;;;;;19.30;101799.00;;;;2095177;28;20698;-69
2023/04/04 00:27:32;;;;;;;2.40;1.60;;;;;19.30;101781.00;;;;2095147;28;21009;-69
2023/04/04 00:28:32;;;;;;;2.80;1.90;;;;;19.30;101805.00;;;;2095749;28;20576;-69
2023/04/04 00:29:36;;;;;;;4.33;2.23;;;;;19.30;101800.00;;;;2095404;28;20557;-69
2023/04/04 00:30:36;;;;;;;2.65;1.83;;;;;19.30;101798.00;;;;2095721;28;20582;-69
2023/04/04 00:31:37;;;;;;;2.90;1.60;;;;;19.30;101801.00;;;;2094722;28;20230;-69
2023/04/04 00:32:37;;;;;;;2.40;1.87;;;;;19.30;101801.00;;;;2094359;28;20297;-68
2023/04/04 00:33:37;;;;;;;3.40;1.77;;;;;19.30;101803.00;;;;2086890;28;20670;-68
2023/04/04 00:34:38;;;;;;;2.57;1.60;;;;;19.20;101803.00;;;;2093358;28;20592;-69
2023/04/04 00:35:38;;;;;;;2.20;1.63;;;;;19.20;101804.00;;;;2095839;28;20231;-69
2023/04/04 00:36:38;;;;;;;3.23;2.13;;;;;19.20;101802.00;;;;2095676;28;20214;-69
2023/04/04 00:37:39;;;;;;;2.73;1.77;;;;;19.20;101801.00;;;;2095250;28;20261;-69
2023/04/04 00:38:39;;;;;;;2.80;1.90;;;;;19.20;101794.00;;;;2095671;28;20223;-69
2023/04/04 00:39:39;;;;;;;2.80;1.70;;;;;19.20;101793.00;;;;2095190;28;20269;-69
2023/04/04 00:40:41;;;;;;;1.90;1.50;;;;;19.20;101801.00;;;;2095914;28;20218;-69
2023/04/04 00:41:42;;;;;;;2.33;1.77;;;;;19.20;101800.00;;;;2094673;28;20710;-69
2023/04/04 00:42:42;;;;;;;3.90;1.90;;;;;19.20;101777.00;;;;2095765;28;20218;-69
2023/04/04 00:43:42;;;;;;;2.87;1.70;;;;;19.20;101783.00;;;;2094176;28;20214;-69
2023/04/04 00:44:43;;;;;;;2.30;1.53;;;;;19.20;101797.00;;;;2078727;28;20220;-69
2023/04/04 00:45:43;;;;;;;2.73;1.80;;;;;19.20;101809.00;;;;2086774;28;20301;-69
2023/04/04 00:46:43;;;;;;;2.10;1.53;;;;;19.20;101802.00;;;;2095043;28;20215;-69
2023/04/04 00:47:44;;;;;;;2.40;1.60;;;;;19.20;101801.00;;;;2095935;28;20211;-69
2023/04/04 00:48:44;;;;;;;2.70;1.70;;;;;19.20;101787.00;;;;2097504;28;20285;-69
2023/04/04 00:49:45;;;;;;;2.23;1.67;;;;;19.20;101804.00;;;;2090402;28;20212;-69
2023/04/04 00:50:45;;;;;;;3.10;1.80;;;;;19.20;101804.00;;;;2094310;28;20212;-69
2023/04/04 00:51:46;;;;;;;2.37;1.83;;;;;19.20;101806.00;;;;2094507;28;20985;-69
2023/04/04 00:52:46;;;;;;;2.53;1.60;;;;;19.10;101805.00;;;;2095356;28;20249;-69
2023/04/04 00:53:46;;;;;;;2.17;1.80;;;;;19.20;101804.00;;;;2095033;28;20203;-69
2023/04/04 00:54:47;;;;;;;1.90;1.43;;;;;19.10;101816.00;;;;2095871;28;20214;-69
2023/04/04 00:55:47;;;;;;;3.30;1.60;;;;;19.10;101812.00;;;;2094869;28;20580;-69
2023/04/04 00:56:53;;;;;;;3.03;1.83;;;;;19.10;101803.00;;;;2095172;28;20679;-69
2023/04/04 00:57:54;;;;;;;2.20;1.80;;;;;19.10;101805.00;;;;2094387;28;20212;-69
2023/04/04 00:58:55;;;;;;;2.40;1.80;;;;;19.10;101806.00;;;;2095085;28;20204;-70
2023/04/04 00:59:58;;;;;;;3.50;2.00;;;;;19.10;101803.00;;;;2078504;28;20208;-70
2023/04/04 01:00:59;;;;;;;2.65;1.92;;;;;19.10;101800.00;;;;2085547;28;21509;-69
2023/04/04 01:01:59;;;;;;;3.37;2.00;;;;;19.10;101807.00;;;;2094845;28;20239;-69
2023/04/04 01:03:00;;;;;;;2.07;1.87;;;;;19.10;101805.00;;;;2094236;28;20450;-69
2023/04/04 01:04:01;;;;;;;2.10;1.63;;;;;19.10;101808.00;;;;2095205;28;20224;-69
2023/04/04 01:05:02;;;;;;;2.13;1.70;;;;;19.10;101801.00;;;;2094930;28;20215;-69
2023/04/04 01:06:03;;;;;;;3.90;2.43;;;;;19.10;101801.00;;;;2095570;28;20338;-69
2023/04/04 01:07:03;;;;;;;2.97;2.30;;;;;19.10;101802.00;;;;2078246;28;20444;-69
2023/04/04 01:08:03;;;;;;;2.77;2.10;;;;;19.10;101796.00;;;;2078356;28;20220;-69
2023/04/04 01:09:04;;;;;;;4.13;2.13;;;;;19.10;101794.00;;;;2095667;28;20703;-69
2023/04/04 01:10:05;;;;;;;3.73;1.77;;;;;19.10;101798.00;;;;2094208;28;20242;-69
2023/04/04 01:11:05;;;;;;;2.90;2.17;;;;;19.00;101798.00;;;;2094697;28;20208;-69
2023/04/04 01:12:06;;;;;;;3.00;2.00;;;;;19.10;101792.00;;;;2094828;28;20745;-69
2023/04/04 01:13:06;;;;;;;2.67;1.90;;;;;19.10;101792.00;;;;2094983;28;20223;-69
2023/04/04 01:14:06;;;;;;;3.90;1.97;;;;;19.10;101794.00;;;;2095016;28;20233;-69
2023/04/04 01:15:07;;;;;;;3.70;1.90;;;;;19.10;101791.00;;;;2095116;28;20238;-69
2023/04/04 01:16:08;;;;;;;2.30;1.57;;;;;19.10;101792.00;;;;2095450;28;20231;-69
2023/04/04 01:17:08;;;;;;;3.43;1.90;;;;;19.00;101784.00;;;;2095207;28;20518;-69
2023/04/04 01:18:08;;;;;;;2.70;2.00;;;;;19.00;101794.00;;;;2094279;28;20724;-69
2023/04/04 01:19:10;;;;;;;2.90;1.90;;;;;19.00;101786.00;;;;2094385;28;20255;-69
2023/04/04 01:20:14;;;;;;;2.95;2.22;;;;;19.00;101788.00;;;;2087005;28;20254;-69
2023/04/04 01:21:16;;;;;;;3.28;2.13;;;;;18.90;101791.00;;;;2086392;28;20733;-69
2023/04/04 01:22:16;;;;;;;3.95;1.85;;;;;18.90;101764.00;;;;2094487;28;20216;-69
2023/04/04 01:23:16;;;;;;;3.20;2.07;;;;;18.90;101754.00;;;;2086995;28;20620;-69
2023/04/04 01:24:17;;;;;;;4.10;1.73;;;;;19.00;101739.00;;;;2093942;28;21021;-71
2023/04/04 01:25:17;;;;;;;3.97;2.07;;;;;19.10;101795.00;;;;2094905;28;20689;-70
2023/04/04 01:26:20;;;;;;;3.67;2.13;;;;;19.20;101789.00;;;;2097379;28;20237;-69
2023/04/04 01:27:20;;;;;;;3.85;1.95;;;;;19.20;101784.00;;;;2095509;28;20211;-67
2023/04/04 01:28:21;;;;;;;3.27;1.90;;;;;19.20;101767.00;;;;2094750;28;20585;-69
2023/04/04 01:29:21;;;;;;;2.87;1.60;;;;;19.30;101796.00;;;;2096257;28;20735;-70
2023/04/04 01:30:21;;;;;;;2.27;1.50;;;;;19.30;101789.00;;;;2097371;28;20262;-69
2023/04/04 01:31:38;;;;;;;3.30;1.77;;;;;19.30;101789.00;;;;2100273;28;20212;-70
2023/04/04 01:32:41;;;;;;;5.57;2.30;;;;;19.30;101788.00;;;;2090196;28;20242;-68
2023/04/04 01:33:46;;;;;;;2.25;2.05;;;;;19.30;101782.00;;;;2095440;28;20216;-68
2023/04/04 01:35:29;;;;;;;2.10;1.40;;;;;19.30;101786.00;;;;2096743;28;20253;-70
2023/04/04 01:37:06;;;;;;;2.72;1.83;;;;;19.30;101785.00;;;;2096383;28;20227;-71
2023/04/04 01:38:29;;;;;;;4.57;1.60;;;;;19.30;101785.00;;;;2054189;28;20211;-70
2023/04/04 01:39:31;;;;;;;4.75;1.52;;;;;19.30;101751.00;;;;2095344;28;20634;-70
2023/04/04 01:40:38;;;;;;;4.25;1.90;;;;;19.30;101777.00;;;;2096501;28;20608;-70
2023/04/04 01:41:38;;;;;;;2.67;2.03;;;;;19.30;101783.00;;;;2096256;28;20580;-70
2023/04/04 01:42:39;;;;;;;3.10;1.67;;;;;19.30;101786.00;;;;2094937;28;21507;-71
2023/04/04 01:43:39;;;;;;;2.40;1.70;;;;;19.30;101776.00;;;;2096274;28;20223;-71
2023/04/04 01:44:40;;;;;;;2.83;1.50;;;;;19.30;101756.00;;;;2096054;28;20228;-70
2023/04/04 01:45:40;;;;;;;6.80;2.13;;;;;19.30;101761.00;;;;2095688;28;20296;-70
2023/04/04 01:46:41;;;;;;;3.77;1.93;;;;;19.30;101783.00;;;;2088029;28;20502;-70
2023/04/04 01:47:42;;;;;;;2.53;1.57;;;;;19.30;101779.00;;;;2097748;28;20709;-70
2023/04/04 01:48:42;;;;;;;2.63;1.73;;;;;19.30;101781.00;;;;2096554;28;20592;-73
2023/04/04 01:49:43;;;;;;;4.27;1.97;;;;;19.30;101778.00;;;;2095463;28;20713;-73
2023/04/04 01:50:43;;;;;;;2.85;1.55;;;;;19.30;101773.00;;;;2097074;28;20211;-73
2023/04/04 01:51:44;;;;;;;2.47;1.60;;;;;19.30;101774.00;;;;2096450;28;21016;-73
2023/04/04 01:52:44;;;;;;;4.27;1.60;;;;;19.30;101770.00;;;;2091958;28;20679;-72
2023/04/04 01:53:44;;;;;;;3.00;1.73;;;;;19.20;101739.00;;;;2080006;28;20240;-72
2023/04/04 01:54:45;;;;;;;2.43;1.53;;;;;19.20;101782.00;;;;2095627;28;20232;-72
2023/04/04 01:55:45;;;;;;;2.70;1.77;;;;;19.20;101781.00;;;;2096120;28;20215;-73
2023/04/04 01:56:45;;;;;;;2.07;1.60;;;;;19.20;101777.00;;;;2094742;28;20215;-72
2023/04/04 01:57:46;;;;;;;2.70;2.00;;;;;19.20;101781.00;;;;2096887;28;20231;-72
2023/04/04 01:58:47;;;;;;;2.30;1.80;;;;;19.20;101777.00;;;;2096258;28;20218;-73
2023/04/04 01:59:47;;;;;;;3.07;1.80;;;;;19.20;101756.00;;;;2096290;28;20258;-73
2023/04/04 02:00:47;;;;;;;2.13;1.93;;;;;19.20;101748.00;;;;2094822;28;20205;-72
2023/04/04 02:01:48;;;;;;;3.20;2.27;;;;;19.20;101769.00;;;;2094361;28;20247;-73
2023/04/04 02:02:48;;;;;;;2.90;2.20;;;;;19.20;101763.00;;;;2096933;28;20552;-72
2023/04/04 02:03:48;;;;;;;2.80;1.63;;;;;19.20;101772.00;;;;2097622;28;20677;-73
2023/04/04 02:04:49;;;;;;;2.83;1.90;;;;;19.20;101771.00;;;;2097092;28;21030;-73
2023/04/04 02:05:49;;;;;;;4.50;2.50;;;;;19.20;101747.00;;;;2096456;28;20216;-72
2023/04/04 02:06:51;;;;;;;3.83;2.60;;;;;19.20;101773.00;;;;2096076;28;20228;-73
2023/04/04 02:07:51;;;;;;;4.32;2.95;;;;;19.20;101762.00;;;;2096926;28;20215;-73
2023/04/04 02:08:52;;;;;;;3.47;3.17;;;;;19.10;101768.00;;;;2098528;28;20211;-72
2023/04/04 02:09:52;;;;;;;4.27;3.83;;;;;19.20;101766.00;;;;2096567;28;20201;-72
2023/04/04 02:10:52;;;;;;;6.50;5.23;;;;;19.20;101770.00;;;;2096558;28;20204;-73
2023/04/04 02:11:53;;;;;;;9.83;6.50;;;;;19.20;101765.00;;;;2097107;28;20196;-72
2023/04/04 02:12:53;;;;;;;7.53;6.60;;;;;19.20;101770.00;;;;2095714;28;20202;-72
2023/04/04 02:13:54;;;;;;;9.30;8.00;;;;;19.20;101759.00;;;;2095162;28;20439;-72
2023/04/04 02:14:54;;;;;;;9.17;8.00;;;;;19.10;101748.00;;;;2096834;28;20215;-73
2023/04/04 02:15:54;;;;;;;9.17;8.23;;;;;19.10;101763.00;;;;2095361;28;20204;-73
2023/04/04 02:16:55;;;;;;;9.70;8.70;;;;;19.10;101765.00;;;;2087971;28;20207;-73
2023/04/04 02:17:55;;;;;;;9.80;8.80;;;;;19.10;101746.00;;;;2095179;28;20667;-73
2023/04/04 02:18:55;;;;;;;11.03;8.83;;;;;19.20;101769.00;;;;2096008;28;20226;-73
2023/04/04 02:19:56;;;;;;;10.87;9.77;;;;;19.10;101764.00;;;;2096055;28;20294;-73
2023/04/04 02:20:56;;;;;;;12.20;9.47;;;;;19.10;101762.00;;;;2095485;28;20246;-72
2023/04/04 02:21:57;;;;;;;11.80;10.03;;;;;19.10;101759.00;;;;2096418;28;20225;-72
2023/04/04 02:22:57;;;;;;;11.00;9.40;;;;;19.10;101764.00;;;;2096022;28;20211;-72
2023/04/04 02:23:57;;;;;;;13.60;9.47;;;;;19.10;101757.00;;;;2096307;28;20222;-69
2023/04/04 02:24:59;;;;;;;10.40;8.77;;;;;19.10;101762.00;;;;2095822;28;20567;-69
2023/04/04 02:25:59;;;;;;;9.68;8.52;;;;;19.10;101759.00;;;;2096565;28;20290;-69
2023/04/04 02:27:00;;;;;;;10.60;9.40;;;;;19.10;101766.00;;;;2095963;28;20297;-69
2023/04/04 02:28:00;;;;;;;10.57;9.33;;;;;19.20;101770.00;;;;2095174;28;20219;-69
2023/04/04 02:29:01;;;;;;;12.40;10.47;;;;;19.10;101774.00;;;;2096755;28;20250;-69
2023/04/04 02:30:02;;;;;;;14.82;11.80;;;;;19.10;101773.00;;;;2098350;28;20261;-69
2023/04/04 02:31:02;;;;;;;14.23;11.80;;;;;19.10;101769.00;;;;2096798;28;20313;-69
2023/04/04 02:32:02;;;;;;;13.10;11.80;;;;;19.10;101759.00;;;;2097758;28;20277;-68
2023/04/04 02:33:03;;;;;;;20.83;16.80;;;;;19.10;101766.00;;;;2096972;28;20232;-69
2023/04/04 02:34:03;;;;;;;18.17;16.20;;;;;19.10;101773.00;;;;2096531;28;20219;-69
2023/04/04 02:35:04;;;;;;;19.10;16.97;;;;;19.10;101774.00;;;;2096168;28;20222;-69
2023/04/04 02:36:04;;;;;;;22.30;18.23;;;;;19.10;101772.00;;;;2096497;28;20594;-69
2023/04/04 02:37:05;;;;;;;22.57;18.60;;;;;19.10;101769.00;;;;2095827;28;20223;-69
2023/04/04 02:38:05;;;;;;;21.43;18.60;;;;;19.10;101772.00;;;;2096584;28;20250;-69
2023/04/04 02:39:05;;;;;;;21.80;18.00;;;;;19.10;101767.00;;;;2095715;28;20222;-68
2023/04/04 02:40:07;;;;;;;20.37;17.60;;;;;19.10;101772.00;;;;2096370;28;20212;-69
2023/04/04 02:41:07;;;;;;;20.98;18.67;;;;;19.10;101767.00;;;;2096199;28;20216;-69
2023/04/04 02:42:07;;;;;;;21.57;17.87;;;;;19.10;101769.00;;;;2095748;28;20238;-69
2023/04/04 02:43:07;;;;;;;20.10;17.63;;;;;19.10;101768.00;;;;2095747;28;20219;-69
2023/04/04 02:44:09;;;;;;;22.47;17.90;;;;;19.00;101749.00;;;;2095119;28;20254;-69
2023/04/04 02:45:10;;;;;;;20.55;17.08;;;;;19.10;101768.00;;;;2096420;28;20219;-69
2023/04/04 02:46:10;;;;;;;20.13;17.33;;;;;19.10;101736.00;;;;2095518;28;20285;-69
2023/04/04 02:47:11;;;;;;;20.47;17.20;;;;;19.10;101746.00;;;;2096365;28;20208;-69
2023/04/04 02:48:11;;;;;;;20.90;17.40;;;;;19.10;101758.00;;;;2095767;28;20258;-69
2023/04/04 02:49:12;;;;;;;24.03;17.90;;;;;19.10;101756.00;;;;2104374;28;20264;-69
2023/04/04 02:50:12;;;;;;;24.23;17.60;;;;;19.00;101752.00;;;;2096122;28;20226;-69
2023/04/04 02:51:12;;;;;;;21.80;17.97;;;;;19.00;101768.00;;;;2095316;28;20821;-69
2023/04/04 02:52:13;;;;;;;25.20;19.20;;;;;19.10;101759.00;;;;2096282;28;20208;-69
2023/04/04 02:53:13;;;;;;;23.90;19.10;;;;;19.00;101756.00;;;;2095618;28;20211;-69
2023/04/04 02:54:13;;;;;;;24.77;18.97;;;;;19.00;101752.00;;;;2095760;28;20219;-68
2023/04/04 02:55:14;;;;;;;24.23;19.33;;;;;19.00;101745.00;;;;2095405;28;20208;-68
2023/04/04 02:56:14;;;;;;;25.70;20.60;;;;;19.00;101759.00;;;;2098784;28;20234;-69
2023/04/04 02:57:14;;;;;;;26.40;21.50;;;;;19.00;101756.00;;;;2095739;28;20216;-69
2023/04/04 02:58:15;;;;;;;27.33;21.23;;;;;19.00;101748.00;;;;2095550;28;20219;-69
2023/04/04 02:59:16;;;;;;;24.17;20.70;;;;;19.00;101755.00;;;;2096442;28;20207;-69
2023/04/04 03:00:17;;;;;;;23.50;19.08;;;;;19.00;101753.00;;;;2095444;28;20219;-69
2023/04/04 03:01:18;;;;;;;26.50;21.20;;;;;19.00;101751.00;;;;2096145;28;20223;-69
2023/04/04 03:02:18;;;;;;;27.53;20.67;;;;;19.00;101760.00;;;;2095451;28;20736;-69
2023/04/04 03:03:18;;;;;;;27.30;20.60;;;;;19.00;101754.00;;;;2100910;28;20212;-68
2023/04/04 03:04:19;;;;;;;29.60;22.30;;;;;19.00;101757.00;;;;2096427;28;20322;-69
2023/04/04 03:05:19;;;;;;;25.53;21.80;;;;;19.00;101751.00;;;;2095183;28;20722;-69
2023/04/04 03:06:20;;;;;;;27.07;20.23;;;;;19.00;101752.00;;;;2095781;28;20304;-69
2023/04/04 03:07:21;;;;;;;27.70;19.90;;;;;19.00;101750.00;;;;2093577;28;20219;-69
2023/04/04 03:08:22;;;;;;;22.88;19.88;;;;;19.00;101748.00;;;;2096576;28;20614;-69
2023/04/04 03:09:22;;;;;;;24.00;17.93;;;;;19.00;101749.00;;;;2095542;28;20216;-69
2023/04/04 03:10:23;;;;;;;22.97;18.90;;;;;19.00;101752.00;;;;2088927;28;20232;-69
2023/04/04 03:11:23;;;;;;;21.40;18.10;;;;;19.00;101748.00;;;;2096186;28;20219;-69
2023/04/04 03:12:24;;;;;;;20.43;17.00;;;;;18.90;101750.00;;;;2095479;28;20456;-69
2023/04/04 03:13:24;;;;;;;19.50;16.90;;;;;18.90;101753.00;;;;2096263;28;20219;-68
2023/04/04 03:14:25;;;;;;;24.30;18.30;;;;;19.00;101748.00;;;;2095273;28;20264;-69
2023/04/04 03:15:26;;;;;;;22.20;18.77;;;;;19.00;101750.00;;;;2096350;28;20215;-69
2023/04/04 03:16:28;;;;;;;22.33;18.60;;;;;19.00;101752.00;;;;2095418;28;20466;-69
2023/04/04 03:17:28;;;;;;;24.60;19.15;;;;;19.00;101756.00;;;;2096316;28;20455;-69
2023/04/04 03:18:29;;;;;;;25.63;19.53;;;;;19.00;101739.00;;;;2096400;28;20704;-69
2023/04/04 03:19:29;;;;;;;25.13;20.30;;;;;19.00;101756.00;;;;2095538;28;20717;-69
2023/04/04 03:20:30;;;;;;;26.57;20.97;;;;;19.00;101757.00;;;;2095532;28;20222;-69
2023/04/04 03:21:30;;;;;;;28.97;21.93;;;;;19.00;101763.00;;;;2094375;28;21529;-69
2023/04/04 03:22:31;;;;;;;27.07;22.60;;;;;18.90;101744.00;;;;2096194;28;20465;-69
2023/04/04 03:23:31;;;;;;;27.87;22.83;;;;;18.90;101756.00;;;;2095657;28;20337;-69
2023/04/04 03:24:31;;;;;;;29.30;24.00;;;;;18.90;101761.00;;;;2096419;28;20210;-69
2023/04/04 03:25:32;;;;;;;28.43;23.80;;;;;18.90;101758.00;;;;2096089;28;20215;-70
2023/04/04 03:26:32;;;;;;;26.83;22.37;;;;;18.90;101755.00;;;;2095254;28;20215;-69
2023/04/04 03:27:33;;;;;;;27.17;23.57;;;;;19.00;101757.00;;;;2096228;28;20231;-69
2023/04/04 03:28:33;;;;;;;28.30;24.10;;;;;18.90;101752.00;;;;2098510;28;20210;-69
2023/04/04 03:29:34;;;;;;;28.00;23.20;;;;;18.90;101755.00;;;;2098021;28;20215;-69
2023/04/04 03:30:34;;;;;;;29.93;23.30;;;;;18.90;101752.00;;;;2095325;28;20272;-69
2023/04/04 03:31:34;;;;;;;29.67;22.67;;;;;18.90;101753.00;;;;2096038;28;20216;-69
2023/04/04 03:32:36;;;;;;;26.27;22.20;;;;;18.90;101753.00;;;;2095411;28;20213;-69
2023/04/04 03:33:37;;;;;;;27.63;23.42;;;;;18.90;101753.00;;;;2095664;28;20285;-69
2023/04/04 03:34:37;;;;;;;28.23;22.67;;;;;18.90;101745.00;;;;2096087;28;20685;-69
2023/04/04 03:35:38;;;;;;;26.83;19.93;;;;;18.90;101748.00;;;;2095395;28;20246;-69
2023/04/04 03:36:39;;;;;;;25.57;20.97;;;;;18.90;101737.00;;;;2096047;28;20284;-70
2023/04/04 03:37:39;;;;;;;26.23;20.70;;;;;18.90;101751.00;;;;2095495;28;20445;-69
2023/04/04 03:38:39;;;;;;;27.83;21.40;;;;;18.90;101742.00;;;;2095794;28;20231;-69
2023/04/04 03:39:40;;;;;;;23.57;20.23;;;;;18.90;101675.00;;;;2095924;28;20212;-70
2023/04/04 03:40:40;;;;;;;24.87;19.53;;;;;18.90;101735.00;;;;2094717;28;20239;-69
2023/04/04 03:41:41;;;;;;;22.67;20.27;;;;;18.90;101729.00;;;;2094898;28;20243;-69
2023/04/04 03:42:41;;;;;;;21.87;19.03;;;;;18.90;101733.00;;;;2098342;28;20647;-69
2023/04/04 03:43:41;;;;;;;22.67;18.80;;;;;18.90;101725.00;;;;2087095;28;20634;-69
2023/04/04 03:44:42;;;;;;;23.60;18.73;;;;;18.90;101731.00;;;;2096054;28;20223;-69
2023/04/04 03:45:42;;;;;;;21.93;17.70;;;;;18.90;101738.00;;;;2098166;28;20216;-69
2023/04/04 03:46:42;;;;;;;21.63;18.00;;;;;18.90;101738.00;;;;2095271;28;20286;-69
2023/04/04 03:47:43;;;;;;;23.53;18.97;;;;;18.90;101733.00;;;;2086505;28;20239;-70
2023/04/04 03:48:43;;;;;;;21.47;17.67;;;;;18.90;101735.00;;;;2095513;28;20214;-70
2023/04/04 03:49:44;;;;;;;21.67;16.20;;;;;18.90;101735.00;;;;2095321;28;20222;-69
2023/04/04 03:50:44;;;;;;;19.60;15.50;;;;;18.90;101732.00;;;;2095665;28;20208;-69
2023/04/04 03:51:44;;;;;;;18.63;15.53;;;;;18.90;101737.00;;;;2095803;28;20214;-69
2023/04/04 03:52:46;;;;;;;19.07;15.70;;;;;18.90;101729.00;;;;2101047;28;20207;-69
2023/04/04 03:53:46;;;;;;;21.25;16.67;;;;;18.90;101732.00;;;;2096073;28;21125;-69
2023/04/04 03:54:46;;;;;;;20.67;15.87;;;;;18.90;101731.00;;;;2095380;28;20216;-69
2023/04/04 03:55:47;;;;;;;21.30;15.67;;;;;18.90;101736.00;;;;2096124;28;20210;-69
2023/04/04 03:56:47;;;;;;;18.37;14.90;;;;;18.90;101733.00;;;;2095710;28;20251;-69
2023/04/04 03:57:47;;;;;;;19.37;14.80;;;;;18.90;101733.00;;;;2096143;28;20214;-69
2023/04/04 03:58:48;;;;;;;18.87;14.60;;;;;18.80;101736.00;;;;2095263;28;20246;-69
2023/04/04 03:59:48;;;;;;;16.33;13.37;;;;;18.80;101727.00;;;;2095285;28;20211;-69
2023/04/04 04:00:48;;;;;;;15.73;13.17;;;;;18.90;101730.00;;;;2094895;28;20219;-69
2023/04/04 04:01:49;;;;;;;15.20;12.50;;;;;18.90;101727.00;;;;2094016;28;20215;-69
2023/04/04 04:02:49;;;;;;;15.50;13.03;;;;;18.90;101731.00;;;;2095158;28;20207;-69
2023/04/04 04:03:50;;;;;;;14.07;12.40;;;;;18.80;101736.00;;;;2095110;28;20246;-69
2023/04/04 04:04:50;;;;;;;14.90;13.10;;;;;18.80;101715.00;;;;2096093;28;20884;-69
2023/04/04 04:05:52;;;;;;;15.17;12.50;;;;;18.80;101729.00;;;;2095271;28;20218;-69
2023/04/04 04:06:52;;;;;;;14.23;11.95;;;;;18.80;101730.00;;;;2094121;28;20574;-69
2023/04/04 04:07:53;;;;;;;12.87;10.87;;;;;18.80;101723.00;;;;2096803;28;20202;-69
2023/04/04 04:08:55;;;;;;;14.30;12.80;;;;;18.80;101718.00;;;;2094382;28;20207;-69
2023/04/04 04:09:55;;;;;;;13.18;11.07;;;;;18.80;101726.00;;;;2095202;28;20250;-69
2023/04/04 04:10:56;;;;;;;13.70;11.60;;;;;18.80;101669.00;;;;2100102;28;20561;-69
2023/04/04 04:11:56;;;;;;;12.70;11.40;;;;;18.80;101731.00;;;;2095746;28;20218;-70
2023/04/04 04:12:57;;;;;;;11.97;10.77;;;;;18.80;101733.00;;;;2095032;28;20476;-70
2023/04/04 04:13:59;;;;;;;14.70;10.83;;;;;18.80;101678.00;;;;2095641;28;20565;-69
2023/04/04 04:14:59;;;;;;;12.55;10.70;;;;;18.80;101731.00;;;;2094334;28;20214;-69
2023/04/04 04:16:00;;;;;;;14.07;10.27;;;;;18.90;101733.00;;;;2095052;28;20211;-69
2023/04/04 04:17:00;;;;;;;11.53;9.50;;;;;18.80;101730.00;;;;2095972;28;20211;-69
2023/04/04 04:18:00;;;;;;;11.27;10.07;;;;;18.80;101726.00;;;;2095345;28;20238;-69
2023/04/04 04:19:01;;;;;;;10.63;9.50;;;;;18.80;101721.00;;;;2093815;28;20222;-69
2023/04/04 04:20:01;;;;;;;11.07;9.50;;;;;18.80;101717.00;;;;2095245;28;20226;-69
2023/04/04 04:21:02;;;;;;;11.90;10.00;;;;;18.80;101725.00;;;;2095896;28;20700;-69
2023/04/04 04:22:03;;;;;;;9.63;8.63;;;;;18.80;101719.00;;;;2095267;28;20612;-69
2023/04/04 04:23:03;;;;;;;11.63;9.37;;;;;18.80;101718.00;;;;2097653;28;20240;-70
2023/04/04 04:24:04;;;;;;;10.20;9.07;;;;;18.80;101718.00;;;;2095755;28;20221;-70
2023/04/04 04:25:04;;;;;;;9.03;8.00;;;;;18.80;101718.00;;;;2095153;28;20215;-69
2023/04/04 04:26:05;;;;;;;9.73;8.40;;;;;18.80;101722.00;;;;2095862;28;20944;-69
2023/04/04 04:27:06;;;;;;;10.40;8.53;;;;;18.80;101722.00;;;;2095169;28;20241;-69
2023/04/04 04:28:06;;;;;;;10.43;9.10;;;;;18.80;101721.00;;;;2095484;28;20461;-69
2023/04/04 04:29:06;;;;;;;9.40;8.03;;;;;18.80;101723.00;;;;2095046;28;20231;-69
2023/04/04 04:30:07;;;;;;;9.37;7.70;;;;;18.80;101709.00;;;;2095818;28;20206;-69
2023/04/04 04:31:08;;;;;;;9.35;8.25;;;;;18.70;101721.00;;;;2095506;28;20218;-69
2023/04/04 04:32:09;;;;;;;10.60;8.83;;;;;18.80;101726.00;;;;2094744;28;20297;-69
2023/04/04 04:33:09;;;;;;;11.00;8.37;;;;;18.70;101718.00;;;;2095845;28;20216;-69
2023/04/04 04:34:10;;;;;;;8.90;7.43;;;;;18.70;101725.00;;;;2094359;28;20950;-69
2023/04/04 04:35:10;;;;;;;11.50;7.50;;;;;18.80;101726.00;;;;2095928;28;20679;-69
2023/04/04 04:36:11;;;;;;;9.33;6.97;;;;;18.80;101729.00;;;;2094821;28;20223;-69
2023/04/04 04:37:11;;;;;;;8.90;8.00;;;;;18.80;101720.00;;;;2095658;28;20225;-69
2023/04/04 04:38:12;;;;;;;8.73;7.03;;;;;18.70;101729.00;;;;2094801;28;20224;-69
2023/04/04 04:39:12;;;;;;;7.63;6.67;;;;;18.70;101722.00;;;;2094078;28;20242;-69
2023/04/04 04:40:15;;;;;;;7.77;6.60;;;;;18.70;101727.00;;;;2095204;28;20204;-69
2023/04/04 04:41:16;;;;;;;8.88;7.40;;;;;18.70;101725.00;;;;2094217;28;20722;-69
2023/04/04 04:42:16;;;;;;;8.87;7.30;;;;;18.70;101728.00;;;;2094702;28;20214;-69
2023/04/04 04:43:17;;;;;;;8.30;6.73;;;;;18.70;101722.00;;;;2094828;28;20230;-69
2023/04/04 04:44:17;;;;;;;7.07;6.33;;;;;18.70;101724.00;;;;2095030;28;20228;-69
2023/04/04 04:45:17;;;;;;;8.13;6.43;;;;;18.70;101623.00;;;;2094994;28;20216;-69
2023/04/04 04:46:18;;;;;;;8.53;6.77;;;;;18.70;101728.00;;;;2094415;28;20246;-69
2023/04/04 04:47:18;;;;;;;6.90;6.20;;;;;18.70;101720.00;;;;2095868;28;20214;-69
2023/04/04 04:48:18;;;;;;;7.37;6.53;;;;;18.70;101722.00;;;;2094607;28;20281;-69
2023/04/04 04:49:19;;;;;;;7.50;6.50;;;;;18.70;101725.00;;;;2095755;28;20208;-69
2023/04/04 04:50:19;;;;;;;6.93;6.10;;;;;18.70;101729.00;;;;2095184;28;20203;-69
2023/04/04 04:51:19;;;;;;;8.57;6.60;;;;;18.70;101721.00;;;;2094727;28;20223;-69
2023/04/04 04:52:20;;;;;;;7.60;6.43;;;;;18.70;101717.00;;;;2094220;28;20755;-69
2023/04/04 04:53:20;;;;;;;8.80;5.90;;;;;18.70;101719.00;;;;2099501;28;20238;-69
2023/04/04 04:54:20;;;;;;;7.90;6.43;;;;;18.70;101722.00;;;;2095535;28;20235;-69
2023/04/04 04:55:21;;;;;;;7.27;5.60;;;;;18.70;101700.00;;;;2099355;28;20249;-69
2023/04/04 04:56:21;;;;;;;5.90;5.30;;;;;18.70;101698.00;;;;2097327;28;20214;-69
2023/04/04 04:57:22;;;;;;;8.07;5.40;;;;;18.70;101712.00;;;;2093942;28;20241;-68
2023/04/04 04:58:22;;;;;;;7.50;5.70;;;;;18.70;101716.00;;;;2095034;28;20693;-69